Aviation Digital Data Service (ADDS)

Output produced by METARs form (1704 UTC 23 November 2014)
found at http://aviationweather.gov/adds/metars/
 
KBHB 231133Z 2312/2412 25006KT P6SM BKN080 
     FM240200 20004KT P6SM SCT015 BKN050 AMD LTD TO CLD VIS AND WIND